sensor_id;sensor_type;location;lat;lon;timestamp;P1;durP1;ratioP1;P2;durP2;ratioP2
14241;SDS011;7205;50.864;12.766;2023-06-14T00:00:14;3.33;;;2.93;;
14241;SDS011;7205;50.864;12.766;2023-06-14T00:02:48;3.33;;;3.13;;
14241;SDS011;7205;50.864;12.766;2023-06-14T00:05:16;3.77;;;3.47;;
14241;SDS011;7205;50.864;12.766;2023-06-14T00:07:50;3.83;;;3.20;;
14241;SDS011;7205;50.864;12.766;2023-06-14T00:10:20;3.77;;;3.17;;
14241;SDS011;7205;50.864;12.766;2023-06-14T00:12:48;3.83;;;2.80;;
14241;SDS011;7205;50.864;12.766;2023-06-14T00:15:21;3.60;;;3.30;;
14241;SDS011;7205;50.864;12.766;2023-06-14T00:17:49;2.90;;;2.80;;
14241;SDS011;7205;50.864;12.766;2023-06-14T00:20:16;4.17;;;3.33;;
14241;SDS011;7205;50.864;12.766;2023-06-14T00:22:52;7.00;;;3.47;;
14241;SDS011;7205;50.864;12.766;2023-06-14T00:25:20;4.00;;;3.33;;
14241;SDS011;7205;50.864;12.766;2023-06-14T00:27:56;3.47;;;3.27;;
14241;SDS011;7205;50.864;12.766;2023-06-14T00:30:28;4.50;;;3.20;;
14241;SDS011;7205;50.864;12.766;2023-06-14T00:33:01;4.07;;;3.40;;
14241;SDS011;7205;50.864;12.766;2023-06-14T00:35:28;3.87;;;3.50;;
14241;SDS011;7205;50.864;12.766;2023-06-14T00:37:56;3.80;;;3.50;;
14241;SDS011;7205;50.864;12.766;2023-06-14T00:40:23;4.03;;;3.60;;
14241;SDS011;7205;50.864;12.766;2023-06-14T00:42:49;3.90;;;3.50;;
14241;SDS011;7205;50.864;12.766;2023-06-14T00:45:18;4.03;;;3.63;;
14241;SDS011;7205;50.864;12.766;2023-06-14T00:47:46;4.43;;;4.00;;
14241;SDS011;7205;50.864;12.766;2023-06-14T00:50:15;4.17;;;3.87;;
14241;SDS011;7205;50.864;12.766;2023-06-14T00:52:42;3.90;;;3.60;;
14241;SDS011;7205;50.864;12.766;2023-06-14T00:55:09;3.67;;;3.47;;
14241;SDS011;7205;50.864;12.766;2023-06-14T00:57:36;3.67;;;3.47;;
14241;SDS011;7205;50.864;12.766;2023-06-14T01:00:07;4.50;;;4.10;;
14241;SDS011;7205;50.864;12.766;2023-06-14T01:02:37;6.60;;;3.57;;
14241;SDS011;7205;50.864;12.766;2023-06-14T01:05:04;4.30;;;4.00;;
14241;SDS011;7205;50.864;12.766;2023-06-14T01:07:35;5.03;;;3.30;;
14241;SDS011;7205;50.864;12.766;2023-06-14T01:10:17;5.57;;;3.80;;
14241;SDS011;7205;50.864;12.766;2023-06-14T01:13:05;3.90;;;3.60;;
14241;SDS011;7205;50.864;12.766;2023-06-14T01:15:37;6.50;;;3.83;;
14241;SDS011;7205;50.864;12.766;2023-06-14T01:18:06;7.73;;;4.00;;
14241;SDS011;7205;50.864;12.766;2023-06-14T01:20:43;4.40;;;3.90;;
14241;SDS011;7205;50.864;12.766;2023-06-14T01:23:13;5.10;;;3.83;;
14241;SDS011;7205;50.864;12.766;2023-06-14T01:25:40;3.90;;;3.60;;
14241;SDS011;7205;50.864;12.766;2023-06-14T01:28:11;4.77;;;3.77;;
14241;SDS011;7205;50.864;12.766;2023-06-14T01:30:39;4.63;;;3.73;;
14241;SDS011;7205;50.864;12.766;2023-06-14T01:33:10;4.00;;;3.80;;
14241;SDS011;7205;50.864;12.766;2023-06-14T01:35:38;3.83;;;3.63;;
14241;SDS011;7205;50.864;12.766;2023-06-14T01:38:06;3.90;;;3.70;;
14241;SDS011;7205;50.864;12.766;2023-06-14T01:40:35;4.03;;;3.53;;
14241;SDS011;7205;50.864;12.766;2023-06-14T01:43:03;3.77;;;3.47;;
14241;SDS011;7205;50.864;12.766;2023-06-14T01:45:31;5.00;;;3.70;;
14241;SDS011;7205;50.864;12.766;2023-06-14T01:48:00;4.17;;;3.93;;
14241;SDS011;7205;50.864;12.766;2023-06-14T01:50:27;4.53;;;4.10;;
14241;SDS011;7205;50.864;12.766;2023-06-14T01:52:56;4.07;;;3.77;;
14241;SDS011;7205;50.864;12.766;2023-06-14T01:55:23;3.73;;;3.53;;
14241;SDS011;7205;50.864;12.766;2023-06-14T01:57:54;4.47;;;4.17;;
14241;SDS011;7205;50.864;12.766;2023-06-14T02:00:21;4.03;;;3.73;;
14241;SDS011;7205;50.864;12.766;2023-06-14T02:02:51;4.00;;;3.70;;
14241;SDS011;7205;50.864;12.766;2023-06-14T02:05:18;4.67;;;3.80;;
14241;SDS011;7205;50.864;12.766;2023-06-14T02:07:45;3.73;;;3.43;;
14241;SDS011;7205;50.864;12.766;2023-06-14T02:10:15;3.90;;;3.60;;
14241;SDS011;7205;50.864;12.766;2023-06-14T02:12:42;5.03;;;3.57;;
14241;SDS011;7205;50.864;12.766;2023-06-14T02:15:11;3.83;;;3.40;;
14241;SDS011;7205;50.864;12.766;2023-06-14T02:17:46;3.47;;;3.27;;
14241;SDS011;7205;50.864;12.766;2023-06-14T02:20:16;4.50;;;3.83;;
14241;SDS011;7205;50.864;12.766;2023-06-14T02:22:43;4.20;;;3.90;;
14241;SDS011;7205;50.864;12.766;2023-06-14T02:25:10;4.00;;;3.73;;
14241;SDS011;7205;50.864;12.766;2023-06-14T02:27:39;4.73;;;3.73;;
14241;SDS011;7205;50.864;12.766;2023-06-14T02:30:14;4.40;;;4.00;;
14241;SDS011;7205;50.864;12.766;2023-06-14T02:32:41;4.57;;;4.27;;
14241;SDS011;7205;50.864;12.766;2023-06-14T02:35:11;3.97;;;3.77;;
14241;SDS011;7205;50.864;12.766;2023-06-14T02:37:38;4.10;;;3.80;;
14241;SDS011;7205;50.864;12.766;2023-06-14T02:40:05;4.13;;;3.83;;
14241;SDS011;7205;50.864;12.766;2023-06-14T02:42:35;4.53;;;4.23;;
14241;SDS011;7205;50.864;12.766;2023-06-14T02:45:03;4.37;;;4.07;;
14241;SDS011;7205;50.864;12.766;2023-06-14T02:47:32;4.37;;;4.03;;
14241;SDS011;7205;50.864;12.766;2023-06-14T02:49:59;4.10;;;3.80;;
14241;SDS011;7205;50.864;12.766;2023-06-14T02:52:26;4.47;;;4.17;;
14241;SDS011;7205;50.864;12.766;2023-06-14T02:54:52;5.03;;;4.63;;
14241;SDS011;7205;50.864;12.766;2023-06-14T02:57:20;4.63;;;4.33;;
14241;SDS011;7205;50.864;12.766;2023-06-14T02:59:47;4.47;;;4.07;;
14241;SDS011;7205;50.864;12.766;2023-06-14T03:02:14;5.37;;;4.30;;
14241;SDS011;7205;50.864;12.766;2023-06-14T03:04:44;4.37;;;4.07;;
14241;SDS011;7205;50.864;12.766;2023-06-14T03:07:14;5.07;;;4.67;;
14241;SDS011;7205;50.864;12.766;2023-06-14T03:09:48;7.13;;;4.50;;
14241;SDS011;7205;50.864;12.766;2023-06-14T03:12:15;5.23;;;4.37;;
14241;SDS011;7205;50.864;12.766;2023-06-14T03:14:42;5.07;;;4.20;;
14241;SDS011;7205;50.864;12.766;2023-06-14T03:17:11;6.87;;;4.30;;
14241;SDS011;7205;50.864;12.766;2023-06-14T03:19:39;4.00;;;3.60;;
14241;SDS011;7205;50.864;12.766;2023-06-14T03:22:08;3.90;;;3.43;;
14241;SDS011;7205;50.864;12.766;2023-06-14T03:24:38;4.27;;;3.60;;
14241;SDS011;7205;50.864;12.766;2023-06-14T03:27:10;3.80;;;3.57;;
14241;SDS011;7205;50.864;12.766;2023-06-14T03:29:41;3.67;;;3.47;;
14241;SDS011;7205;50.864;12.766;2023-06-14T03:32:08;6.30;;;3.20;;
14241;SDS011;7205;50.864;12.766;2023-06-14T03:34:38;3.57;;;3.27;;
14241;SDS011;7205;50.864;12.766;2023-06-14T03:37:06;4.23;;;3.37;;
14241;SDS011;7205;50.864;12.766;2023-06-14T03:39:34;3.87;;;3.00;;
14241;SDS011;7205;50.864;12.766;2023-06-14T03:42:02;3.77;;;3.40;;
14241;SDS011;7205;50.864;12.766;2023-06-14T03:44:31;4.37;;;3.60;;
14241;SDS011;7205;50.864;12.766;2023-06-14T03:46:59;3.80;;;2.90;;
14241;SDS011;7205;50.864;12.766;2023-06-14T03:49:27;4.37;;;2.90;;
14241;SDS011;7205;50.864;12.766;2023-06-14T03:51:54;4.47;;;3.00;;
14241;SDS011;7205;50.864;12.766;2023-06-14T03:54:23;3.07;;;2.77;;
14241;SDS011;7205;50.864;12.766;2023-06-14T03:56:52;3.10;;;2.90;;
14241;SDS011;7205;50.864;12.766;2023-06-14T03:59:19;3.70;;;3.40;;
14241;SDS011;7205;50.864;12.766;2023-06-14T04:01:47;3.30;;;2.80;;
14241;SDS011;7205;50.864;12.766;2023-06-14T04:04:15;3.43;;;3.10;;
14241;SDS011;7205;50.864;12.766;2023-06-14T04:06:43;3.03;;;2.83;;
14241;SDS011;7205;50.864;12.766;2023-06-14T04:09:13;4.63;;;3.10;;
14241;SDS011;7205;50.864;12.766;2023-06-14T04:11:40;4.53;;;3.30;;
14241;SDS011;7205;50.864;12.766;2023-06-14T04:14:08;3.80;;;3.30;;
14241;SDS011;7205;50.864;12.766;2023-06-14T04:16:35;3.77;;;3.40;;
14241;SDS011;7205;50.864;12.766;2023-06-14T04:19:02;3.30;;;3.10;;
14241;SDS011;7205;50.864;12.766;2023-06-14T04:21:29;5.13;;;3.17;;
14241;SDS011;7205;50.864;12.766;2023-06-14T04:23:58;3.80;;;3.00;;
14241;SDS011;7205;50.864;12.766;2023-06-14T04:26:28;3.70;;;3.20;;
14241;SDS011;7205;50.864;12.766;2023-06-14T04:28:56;3.20;;;3.00;;
14241;SDS011;7205;50.864;12.766;2023-06-14T04:31:30;6.10;;;3.57;;
14241;SDS011;7205;50.864;12.766;2023-06-14T04:33:59;4.50;;;3.60;;
14241;SDS011;7205;50.864;12.766;2023-06-14T04:36:26;5.30;;;3.10;;
14241;SDS011;7205;50.864;12.766;2023-06-14T04:38:54;3.70;;;3.40;;
14241;SDS011;7205;50.864;12.766;2023-06-14T04:41:24;3.60;;;3.30;;
14241;SDS011;7205;50.864;12.766;2023-06-14T04:43:56;6.33;;;3.20;;
14241;SDS011;7205;50.864;12.766;2023-06-14T04:46:27;5.40;;;3.20;;
14241;SDS011;7205;50.864;12.766;2023-06-14T04:48:58;3.30;;;3.10;;
14241;SDS011;7205;50.864;12.766;2023-06-14T04:51:28;3.43;;;3.13;;
14241;SDS011;7205;50.864;12.766;2023-06-14T04:53:59;5.50;;;3.43;;
14241;SDS011;7205;50.864;12.766;2023-06-14T04:56:27;3.90;;;3.60;;
14241;SDS011;7205;50.864;12.766;2023-06-14T04:58:55;5.33;;;3.80;;
14241;SDS011;7205;50.864;12.766;2023-06-14T05:01:22;3.43;;;3.23;;
14241;SDS011;7205;50.864;12.766;2023-06-14T05:03:49;4.47;;;3.40;;
14241;SDS011;7205;50.864;12.766;2023-06-14T05:06:18;3.83;;;3.30;;
14241;SDS011;7205;50.864;12.766;2023-06-14T05:08:49;4.20;;;3.40;;
14241;SDS011;7205;50.864;12.766;2023-06-14T05:11:16;4.57;;;3.60;;
14241;SDS011;7205;50.864;12.766;2023-06-14T05:13:43;4.27;;;3.87;;
14241;SDS011;7205;50.864;12.766;2023-06-14T05:16:12;3.77;;;3.47;;
14241;SDS011;7205;50.864;12.766;2023-06-14T05:18:41;5.60;;;3.30;;
14241;SDS011;7205;50.864;12.766;2023-06-14T05:21:07;4.60;;;3.43;;
14241;SDS011;7205;50.864;12.766;2023-06-14T05:23:35;6.63;;;3.67;;
14241;SDS011;7205;50.864;12.766;2023-06-14T05:26:02;4.33;;;3.30;;
14241;SDS011;7205;50.864;12.766;2023-06-14T05:28:29;5.53;;;3.60;;
14241;SDS011;7205;50.864;12.766;2023-06-14T05:30:57;3.70;;;3.40;;
14241;SDS011;7205;50.864;12.766;2023-06-14T05:33:24;3.67;;;3.43;;
14241;SDS011;7205;50.864;12.766;2023-06-14T05:35:51;3.60;;;3.30;;
14241;SDS011;7205;50.864;12.766;2023-06-14T05:38:18;3.80;;;3.50;;
14241;SDS011;7205;50.864;12.766;2023-06-14T05:40:46;4.33;;;3.53;;
14241;SDS011;7205;50.864;12.766;2023-06-14T05:43:13;7.57;;;3.90;;
14241;SDS011;7205;50.864;12.766;2023-06-14T05:45:40;4.83;;;3.50;;
14241;SDS011;7205;50.864;12.766;2023-06-14T05:48:06;3.70;;;3.40;;
14241;SDS011;7205;50.864;12.766;2023-06-14T05:50:33;3.77;;;3.47;;
14241;SDS011;7205;50.864;12.766;2023-06-14T05:53:00;3.83;;;3.47;;
14241;SDS011;7205;50.864;12.766;2023-06-14T05:55:27;3.40;;;3.20;;
14241;SDS011;7205;50.864;12.766;2023-06-14T05:57:55;3.53;;;3.23;;
14241;SDS011;7205;50.864;12.766;2023-06-14T06:00:22;3.53;;;3.23;;
14241;SDS011;7205;50.864;12.766;2023-06-14T06:02:49;5.20;;;3.60;;
14241;SDS011;7205;50.864;12.766;2023-06-14T06:05:15;3.70;;;3.40;;
14241;SDS011;7205;50.864;12.766;2023-06-14T06:07:42;3.80;;;3.50;;
14241;SDS011;7205;50.864;12.766;2023-06-14T06:10:10;4.17;;;3.07;;
14241;SDS011;7205;50.864;12.766;2023-06-14T06:12:37;4.23;;;3.20;;
14241;SDS011;7205;50.864;12.766;2023-06-14T06:15:06;4.13;;;3.83;;
14241;SDS011;7205;50.864;12.766;2023-06-14T06:17:33;4.23;;;3.93;;
14241;SDS011;7205;50.864;12.766;2023-06-14T06:20:00;5.10;;;3.43;;
14241;SDS011;7205;50.864;12.766;2023-06-14T06:22:27;6.87;;;3.30;;
14241;SDS011;7205;50.864;12.766;2023-06-14T06:24:54;3.47;;;3.27;;
14241;SDS011;7205;50.864;12.766;2023-06-14T06:27:21;3.50;;;3.30;;
14241;SDS011;7205;50.864;12.766;2023-06-14T06:29:48;5.50;;;3.90;;
14241;SDS011;7205;50.864;12.766;2023-06-14T06:32:16;3.73;;;3.43;;
14241;SDS011;7205;50.864;12.766;2023-06-14T06:34:43;5.90;;;3.80;;
14241;SDS011;7205;50.864;12.766;2023-06-14T06:37:10;4.37;;;4.07;;
14241;SDS011;7205;50.864;12.766;2023-06-14T06:39:37;4.63;;;3.80;;
14241;SDS011;7205;50.864;12.766;2023-06-14T06:42:03;3.70;;;3.50;;
14241;SDS011;7205;50.864;12.766;2023-06-14T06:44:35;5.30;;;3.60;;
14241;SDS011;7205;50.864;12.766;2023-06-14T06:47:02;4.10;;;3.80;;
14241;SDS011;7205;50.864;12.766;2023-06-14T06:49:31;7.50;;;3.83;;
14241;SDS011;7205;50.864;12.766;2023-06-14T06:52:01;3.83;;;3.53;;
14241;SDS011;7205;50.864;12.766;2023-06-14T06:54:28;4.00;;;3.70;;
14241;SDS011;7205;50.864;12.766;2023-06-14T06:56:55;3.73;;;3.33;;
14241;SDS011;7205;50.864;12.766;2023-06-14T06:59:22;4.00;;;3.70;;
14241;SDS011;7205;50.864;12.766;2023-06-14T07:01:49;3.77;;;3.50;;
14241;SDS011;7205;50.864;12.766;2023-06-14T07:04:16;4.33;;;3.40;;
14241;SDS011;7205;50.864;12.766;2023-06-14T07:06:45;3.70;;;3.43;;
14241;SDS011;7205;50.864;12.766;2023-06-14T07:09:13;4.17;;;3.77;;
14241;SDS011;7205;50.864;12.766;2023-06-14T07:11:43;8.10;;;4.00;;
14241;SDS011;7205;50.864;12.766;2023-06-14T07:14:10;6.67;;;3.80;;
14241;SDS011;7205;50.864;12.766;2023-06-14T07:16:38;4.70;;;3.53;;
14241;SDS011;7205;50.864;12.766;2023-06-14T07:19:04;4.13;;;3.73;;
14241;SDS011;7205;50.864;12.766;2023-06-14T07:21:31;3.50;;;3.20;;
14241;SDS011;7205;50.864;12.766;2023-06-14T07:23:59;6.80;;;3.73;;
14241;SDS011;7205;50.864;12.766;2023-06-14T07:26:29;3.87;;;3.57;;
14241;SDS011;7205;50.864;12.766;2023-06-14T07:28:56;4.00;;;3.70;;
14241;SDS011;7205;50.864;12.766;2023-06-14T07:31:23;4.57;;;4.13;;
14241;SDS011;7205;50.864;12.766;2023-06-14T07:33:50;4.20;;;3.90;;
14241;SDS011;7205;50.864;12.766;2023-06-14T07:36:17;4.17;;;3.93;;
14241;SDS011;7205;50.864;12.766;2023-06-14T07:38:43;4.20;;;3.90;;
14241;SDS011;7205;50.864;12.766;2023-06-14T07:41:12;3.50;;;3.20;;
14241;SDS011;7205;50.864;12.766;2023-06-14T07:43:38;3.70;;;3.50;;
14241;SDS011;7205;50.864;12.766;2023-06-14T07:46:05;4.00;;;3.70;;
14241;SDS011;7205;50.864;12.766;2023-06-14T07:48:45;4.03;;;3.70;;
14241;SDS011;7205;50.864;12.766;2023-06-14T07:51:12;3.87;;;3.47;;
14241;SDS011;7205;50.864;12.766;2023-06-14T07:53:39;4.00;;;3.73;;
14241;SDS011;7205;50.864;12.766;2023-06-14T07:56:06;3.93;;;3.67;;
14241;SDS011;7205;50.864;12.766;2023-06-14T07:58:34;4.40;;;4.10;;
14241;SDS011;7205;50.864;12.766;2023-06-14T08:01:01;3.40;;;3.20;;
14241;SDS011;7205;50.864;12.766;2023-06-14T08:03:31;3.70;;;3.40;;
14241;SDS011;7205;50.864;12.766;2023-06-14T08:06:00;3.53;;;3.23;;
14241;SDS011;7205;50.864;12.766;2023-06-14T08:08:28;3.20;;;3.00;;
14241;SDS011;7205;50.864;12.766;2023-06-14T08:10:54;4.43;;;3.33;;
14241;SDS011;7205;50.864;12.766;2023-06-14T08:13:21;5.97;;;3.30;;
14241;SDS011;7205;50.864;12.766;2023-06-14T08:15:49;3.17;;;2.97;;
14241;SDS011;7205;50.864;12.766;2023-06-14T08:18:16;3.37;;;2.90;;
14241;SDS011;7205;50.864;12.766;2023-06-14T08:20:43;3.50;;;3.17;;
14241;SDS011;7205;50.864;12.766;2023-06-14T08:23:10;3.10;;;2.90;;
14241;SDS011;7205;50.864;12.766;2023-06-14T08:25:36;3.10;;;2.90;;
14241;SDS011;7205;50.864;12.766;2023-06-14T08:28:03;3.27;;;2.90;;
14241;SDS011;7205;50.864;12.766;2023-06-14T08:30:30;3.57;;;3.27;;
14241;SDS011;7205;50.864;12.766;2023-06-14T08:32:58;3.03;;;2.83;;
14241;SDS011;7205;50.864;12.766;2023-06-14T08:35:26;2.97;;;2.77;;
14241;SDS011;7205;50.864;12.766;2023-06-14T08:37:55;3.90;;;3.10;;
14241;SDS011;7205;50.864;12.766;2023-06-14T08:40:22;5.20;;;3.27;;
14241;SDS011;7205;50.864;12.766;2023-06-14T08:42:50;3.37;;;2.90;;
14241;SDS011;7205;50.864;12.766;2023-06-14T08:45:18;3.37;;;3.00;;
14241;SDS011;7205;50.864;12.766;2023-06-14T08:47:46;3.33;;;2.97;;
14241;SDS011;7205;50.864;12.766;2023-06-14T08:50:20;3.23;;;2.87;;
14241;SDS011;7205;50.864;12.766;2023-06-14T08:52:51;3.53;;;3.00;;
14241;SDS011;7205;50.864;12.766;2023-06-14T08:55:22;3.23;;;2.63;;
14241;SDS011;7205;50.864;12.766;2023-06-14T08:57:53;3.00;;;2.70;;
14241;SDS011;7205;50.864;12.766;2023-06-14T09:00:21;2.30;;;2.20;;
14241;SDS011;7205;50.864;12.766;2023-06-14T09:02:49;2.63;;;2.43;;
14241;SDS011;7205;50.864;12.766;2023-06-14T09:05:22;3.17;;;2.70;;
14241;SDS011;7205;50.864;12.766;2023-06-14T09:07:49;2.50;;;2.40;;
14241;SDS011;7205;50.864;12.766;2023-06-14T09:10:17;2.90;;;2.70;;
14241;SDS011;7205;50.864;12.766;2023-06-14T09:12:45;4.30;;;2.20;;
14241;SDS011;7205;50.864;12.766;2023-06-14T09:15:12;5.53;;;2.63;;
14241;SDS011;7205;50.864;12.766;2023-06-14T09:17:39;3.30;;;2.60;;
14241;SDS011;7205;50.864;12.766;2023-06-14T09:20:07;2.50;;;2.30;;
14241;SDS011;7205;50.864;12.766;2023-06-14T09:22:37;2.57;;;2.20;;
14241;SDS011;7205;50.864;12.766;2023-06-14T09:25:04;4.23;;;2.70;;
14241;SDS011;7205;50.864;12.766;2023-06-14T09:27:32;3.00;;;2.73;;
14241;SDS011;7205;50.864;12.766;2023-06-14T09:30:01;4.77;;;3.03;;
14241;SDS011;7205;50.864;12.766;2023-06-14T09:32:28;3.43;;;3.13;;
14241;SDS011;7205;50.864;12.766;2023-06-14T09:34:55;3.73;;;2.70;;
14241;SDS011;7205;50.864;12.766;2023-06-14T09:37:26;2.67;;;2.47;;
14241;SDS011;7205;50.864;12.766;2023-06-14T09:39:56;3.20;;;3.00;;
14241;SDS011;7205;50.864;12.766;2023-06-14T09:42:23;2.60;;;2.50;;
14241;SDS011;7205;50.864;12.766;2023-06-14T09:44:51;2.40;;;2.30;;
14241;SDS011;7205;50.864;12.766;2023-06-14T09:47:19;2.80;;;2.60;;
14241;SDS011;7205;50.864;12.766;2023-06-14T09:49:47;2.97;;;2.73;;
14241;SDS011;7205;50.864;12.766;2023-06-14T09:52:14;3.23;;;3.03;;
14241;SDS011;7205;50.864;12.766;2023-06-14T09:54:44;3.40;;;2.87;;
14241;SDS011;7205;50.864;12.766;2023-06-14T09:57:14;3.30;;;2.43;;
14241;SDS011;7205;50.864;12.766;2023-06-14T09:59:42;2.97;;;2.80;;
14241;SDS011;7205;50.864;12.766;2023-06-14T10:02:11;3.00;;;2.53;;
14241;SDS011;7205;50.864;12.766;2023-06-14T10:04:46;3.87;;;2.80;;
14241;SDS011;7205;50.864;12.766;2023-06-14T10:07:19;2.77;;;2.57;;
14241;SDS011;7205;50.864;12.766;2023-06-14T10:09:48;6.77;;;2.80;;
14241;SDS011;7205;50.864;12.766;2023-06-14T10:12:17;2.57;;;2.47;;
14241;SDS011;7205;50.864;12.766;2023-06-14T10:14:48;2.80;;;2.60;;
14241;SDS011;7205;50.864;12.766;2023-06-14T10:17:20;2.40;;;2.23;;
14241;SDS011;7205;50.864;12.766;2023-06-14T10:19:55;3.17;;;2.27;;
14241;SDS011;7205;50.864;12.766;2023-06-14T10:22:32;3.70;;;2.50;;
14241;SDS011;7205;50.864;12.766;2023-06-14T10:25:03;4.17;;;2.47;;
14241;SDS011;7205;50.864;12.766;2023-06-14T10:27:38;2.97;;;2.77;;
14241;SDS011;7205;50.864;12.766;2023-06-14T10:30:07;3.00;;;2.80;;
14241;SDS011;7205;50.864;12.766;2023-06-14T10:32:35;3.67;;;2.40;;
14241;SDS011;7205;50.864;12.766;2023-06-14T10:35:31;2.70;;;2.50;;
14241;SDS011;7205;50.864;12.766;2023-06-14T10:38:06;3.10;;;2.57;;
14241;SDS011;7205;50.864;12.766;2023-06-14T10:40:33;3.27;;;2.77;;
14241;SDS011;7205;50.864;12.766;2023-06-14T10:43:02;4.80;;;2.73;;
14241;SDS011;7205;50.864;12.766;2023-06-14T10:48:43;3.13;;;2.90;;
14241;SDS011;7205;50.864;12.766;2023-06-14T10:51:17;2.87;;;2.70;;
14241;SDS011;7205;50.864;12.766;2023-06-14T10:53:46;3.30;;;3.00;;
14241;SDS011;7205;50.864;12.766;2023-06-14T10:56:23;3.40;;;2.80;;
14241;SDS011;7205;50.864;12.766;2023-06-14T10:58:54;4.50;;;2.63;;
14241;SDS011;7205;50.864;12.766;2023-06-14T11:01:32;2.70;;;2.50;;
14241;SDS011;7205;50.864;12.766;2023-06-14T11:04:09;5.23;;;2.60;;
14241;SDS011;7205;50.864;12.766;2023-06-14T11:12:37;2.67;;;2.47;;
14241;SDS011;7205;50.864;12.766;2023-06-14T11:15:09;5.03;;;2.60;;
14241;SDS011;7205;50.864;12.766;2023-06-14T11:17:36;3.07;;;2.77;;
14241;SDS011;7205;50.864;12.766;2023-06-14T11:20:09;2.70;;;2.50;;
14241;SDS011;7205;50.864;12.766;2023-06-14T11:22:39;5.30;;;2.57;;
14241;SDS011;7205;50.864;12.766;2023-06-14T11:25:08;2.80;;;2.60;;
14241;SDS011;7205;50.864;12.766;2023-06-14T11:27:35;3.60;;;2.60;;
14241;SDS011;7205;50.864;12.766;2023-06-14T11:30:02;3.10;;;2.60;;
14241;SDS011;7205;50.864;12.766;2023-06-14T11:32:32;2.33;;;2.10;;
14241;SDS011;7205;50.864;12.766;2023-06-14T11:34:59;5.27;;;2.23;;
14241;SDS011;7205;50.864;12.766;2023-06-14T11:37:26;2.57;;;2.37;;
14241;SDS011;7205;50.864;12.766;2023-06-14T11:39:56;2.63;;;2.43;;
14241;SDS011;7205;50.864;12.766;2023-06-14T11:42:22;2.30;;;2.20;;
14241;SDS011;7205;50.864;12.766;2023-06-14T11:44:50;2.30;;;2.20;;
14241;SDS011;7205;50.864;12.766;2023-06-14T11:47:17;2.20;;;2.00;;
14241;SDS011;7205;50.864;12.766;2023-06-14T11:49:45;2.50;;;1.70;;
14241;SDS011;7205;50.864;12.766;2023-06-14T11:52:12;2.10;;;2.00;;
14241;SDS011;7205;50.864;12.766;2023-06-14T11:54:39;3.17;;;2.13;;
14241;SDS011;7205;50.864;12.766;2023-06-14T11:57:06;2.57;;;2.37;;
14241;SDS011;7205;50.864;12.766;2023-06-14T11:59:37;2.27;;;1.80;;
14241;SDS011;7205;50.864;12.766;2023-06-14T12:02:05;2.10;;;2.00;;
14241;SDS011;7205;50.864;12.766;2023-06-14T12:04:32;3.07;;;2.40;;
14241;SDS011;7205;50.864;12.766;2023-06-14T12:07:09;4.57;;;2.07;;
14241;SDS011;7205;50.864;12.766;2023-06-14T12:09:39;2.37;;;2.27;;
14241;SDS011;7205;50.864;12.766;2023-06-14T12:12:08;2.40;;;2.10;;
14241;SDS011;7205;50.864;12.766;2023-06-14T12:14:36;2.20;;;2.00;;
14241;SDS011;7205;50.864;12.766;2023-06-14T12:17:03;2.13;;;2.00;;
14241;SDS011;7205;50.864;12.766;2023-06-14T12:19:32;2.97;;;1.87;;
14241;SDS011;7205;50.864;12.766;2023-06-14T12:21:59;2.40;;;1.97;;
14241;SDS011;7205;50.864;12.766;2023-06-14T12:24:31;1.70;;;1.60;;
14241;SDS011;7205;50.864;12.766;2023-06-14T12:26:58;1.88;;;1.77;;
14241;SDS011;7205;50.864;12.766;2023-06-14T12:29:28;2.33;;;2.00;;
14241;SDS011;7205;50.864;12.766;2023-06-14T12:31:55;3.05;;;2.13;;
14241;SDS011;7205;50.864;12.766;2023-06-14T12:34:22;5.15;;;2.13;;
14241;SDS011;7205;50.864;12.766;2023-06-14T12:36:49;1.77;;;1.67;;
14241;SDS011;7205;50.864;12.766;2023-06-14T12:39:16;4.20;;;2.08;;
14241;SDS011;7205;50.864;12.766;2023-06-14T12:41:45;2.95;;;2.22;;
14241;SDS011;7205;50.864;12.766;2023-06-14T12:44:12;2.17;;;2.07;;
14241;SDS011;7205;50.864;12.766;2023-06-14T12:46:39;2.70;;;2.50;;
14241;SDS011;7205;50.864;12.766;2023-06-14T12:49:07;7.37;;;2.50;;
14241;SDS011;7205;50.864;12.766;2023-06-14T12:51:37;2.23;;;2.13;;
14241;SDS011;7205;50.864;12.766;2023-06-14T12:54:04;5.37;;;2.07;;
14241;SDS011;7205;50.864;12.766;2023-06-14T12:56:31;3.50;;;2.53;;
14241;SDS011;7205;50.864;12.766;2023-06-14T12:58:59;2.20;;;2.10;;
14241;SDS011;7205;50.864;12.766;2023-06-14T13:01:26;2.40;;;2.30;;
14241;SDS011;7205;50.864;12.766;2023-06-14T13:03:53;2.53;;;2.40;;
14241;SDS011;7205;50.864;12.766;2023-06-14T13:06:22;2.20;;;2.10;;
14241;SDS011;7205;50.864;12.766;2023-06-14T13:08:51;3.73;;;1.90;;
14241;SDS011;7205;50.864;12.766;2023-06-14T13:11:20;5.40;;;2.20;;
14241;SDS011;7205;50.864;12.766;2023-06-14T13:13:46;2.43;;;2.07;;
14241;SDS011;7205;50.864;12.766;2023-06-14T13:16:15;2.87;;;2.23;;
14241;SDS011;7205;50.864;12.766;2023-06-14T13:18:41;2.13;;;1.90;;
14241;SDS011;7205;50.864;12.766;2023-06-14T13:21:08;1.87;;;1.77;;
14241;SDS011;7205;50.864;12.766;2023-06-14T13:23:35;2.00;;;1.90;;
14241;SDS011;7205;50.864;12.766;2023-06-14T13:26:05;2.80;;;1.97;;
14241;SDS011;7205;50.864;12.766;2023-06-14T13:28:32;2.60;;;1.83;;
14241;SDS011;7205;50.864;12.766;2023-06-14T13:31:00;1.90;;;1.80;;
14241;SDS011;7205;50.864;12.766;2023-06-14T13:33:28;2.67;;;1.97;;
14241;SDS011;7205;50.864;12.766;2023-06-14T13:35:55;2.40;;;1.70;;
14241;SDS011;7205;50.864;12.766;2023-06-14T13:38:22;1.80;;;1.70;;
14241;SDS011;7205;50.864;12.766;2023-06-14T13:40:49;1.60;;;1.60;;
14241;SDS011;7205;50.864;12.766;2023-06-14T13:43:16;1.80;;;1.63;;
14241;SDS011;7205;50.864;12.766;2023-06-14T13:45:43;2.90;;;1.80;;
14241;SDS011;7205;50.864;12.766;2023-06-14T13:48:10;3.08;;;2.40;;
14241;SDS011;7205;50.864;12.766;2023-06-14T13:50:39;3.13;;;2.25;;
14241;SDS011;7205;50.864;12.766;2023-06-14T13:53:08;2.45;;;2.22;;
14241;SDS011;7205;50.864;12.766;2023-06-14T13:55:35;3.85;;;2.10;;
14241;SDS011;7205;50.864;12.766;2023-06-14T13:58:02;2.80;;;2.60;;
14241;SDS011;7205;50.864;12.766;2023-06-14T14:00:29;2.72;;;2.50;;
14241;SDS011;7205;50.864;12.766;2023-06-14T14:02:56;2.55;;;2.38;;
14241;SDS011;7205;50.864;12.766;2023-06-14T14:05:25;2.25;;;2.15;;
14241;SDS011;7205;50.864;12.766;2023-06-14T14:07:56;2.33;;;2.10;;
14241;SDS011;7205;50.864;12.766;2023-06-14T14:10:23;3.58;;;2.10;;
14241;SDS011;7205;50.864;12.766;2023-06-14T14:12:51;2.60;;;2.08;;
14241;SDS011;7205;50.864;12.766;2023-06-14T14:15:18;2.42;;;2.33;;
14241;SDS011;7205;50.864;12.766;2023-06-14T14:17:45;2.60;;;2.40;;
14241;SDS011;7205;50.864;12.766;2023-06-14T14:20:16;2.40;;;2.30;;
14241;SDS011;7205;50.864;12.766;2023-06-14T14:22:43;3.10;;;2.20;;
14241;SDS011;7205;50.864;12.766;2023-06-14T14:25:11;2.58;;;2.35;;
14241;SDS011;7205;50.864;12.766;2023-06-14T14:27:38;2.30;;;2.20;;
14241;SDS011;7205;50.864;12.766;2023-06-14T14:30:06;3.93;;;2.27;;
14241;SDS011;7205;50.864;12.766;2023-06-14T14:32:33;2.85;;;1.95;;
14241;SDS011;7205;50.864;12.766;2023-06-14T14:35:00;2.63;;;1.90;;
14241;SDS011;7205;50.864;12.766;2023-06-14T14:37:44;2.38;;;2.00;;
14241;SDS011;7205;50.864;12.766;2023-06-14T14:40:16;1.80;;;1.70;;
14241;SDS011;7205;50.864;12.766;2023-06-14T14:42:47;1.70;;;1.60;;
14241;SDS011;7205;50.864;12.766;2023-06-14T14:45:21;2.33;;;1.40;;
14241;SDS011;7205;50.864;12.766;2023-06-14T14:47:52;1.77;;;1.67;;
14241;SDS011;7205;50.864;12.766;2023-06-14T14:50:22;1.95;;;1.85;;
14241;SDS011;7205;50.864;12.766;2023-06-14T14:52:50;1.80;;;1.70;;
14241;SDS011;7205;50.864;12.766;2023-06-14T14:55:21;2.55;;;1.73;;
14241;SDS011;7205;50.864;12.766;2023-06-14T14:57:48;3.88;;;1.73;;
14241;SDS011;7205;50.864;12.766;2023-06-14T15:00:16;1.90;;;1.80;;
14241;SDS011;7205;50.864;12.766;2023-06-14T15:02:44;2.30;;;2.10;;
14241;SDS011;7205;50.864;12.766;2023-06-14T15:05:15;3.03;;;2.72;;